Погода Буйна 2 недели

Витебская область, Белоруссия

25 мая-07 июня
  • 25мая
    Сегодня
    +13°
    +25°
    Ясно и безоблачно
    ВремяПогодаТемператураВлажностьДавлениеВетер, м/сВероятность осадков
    00:00Ясно и безоблачно+16°C58 %756 мм4.0 м/с2 %
    03:00Ясно и безоблачно+14°C59 %756 мм3.5 м/с2 %
    06:00Ясно и безоблачно+13°C61 %756 мм3.4 м/с2 %
    09:00Ясно и безоблачно+18°C59 %756 мм1.2 м/с2 %
    12:00Практически безоблачно+23°C45 %756 мм2.5 м/с2 %
    15:00Ясно и безоблачно+25°C39 %755 мм2.9 м/с2 %
    18:00Ясно и безоблачно+25°C41 %754 мм2.2 м/с2 %
    21:00Ясно и безоблачно+20°C65 %754 мм0.6 м/с2 %
  • 26мая
    Воскресенье
    +14°
    +25°
    Ясно и безоблачно
    ВремяПогодаТемператураВлажностьДавлениеВетер, м/сВероятность осадков
    00:00Ясно и безоблачно+17°C69 %754 мм2.4 м/с2 %
    03:00Ясно и безоблачно+15°C69 %754 мм2.5 м/с2 %
    06:00Практически безоблачно+14°C73 %755 мм2.1 м/с2 %
    09:00Практически безоблачно+20°C56 %755 мм0.5 м/с2 %
    12:00Небольшая облачность+24°C40 %755 мм0.5 м/с1 %
    15:00Ясно и безоблачно+25°C38 %754 мм1.8 м/с2 %
    18:00Небольшая облачность+25°C41 %754 мм1.5 м/с2 %
    21:00Небольшая облачность+20°C65 %754 мм0.2 м/с2 %
  • 27мая
    Понедельник
    +13°
    +27°
    Практически безоблачно
    ВремяПогодаТемператураВлажностьДавлениеВетер, м/сВероятность осадков
    00:00Ясно и безоблачно+17°C73 %754 мм2.4 м/с2 %
    03:00Ясно и безоблачно+15°C82 %754 мм2.6 м/с2 %
    06:00Ясно и безоблачно+15°C84 %754 мм1.0 м/с2 %
    09:00Ясно и безоблачно+21°C67 %754 мм0.4 м/с2 %
    12:00Ясно и безоблачно+26°C44 %754 мм1.5 м/с2 %
    15:00Практически безоблачно+26°C43 %753 мм1.0 м/с8 %
    18:00Небольшая облачность+24°C53 %753 мм1.7 м/с26 %
    21:00Ясно и безоблачно+21°C74 %752 мм0.0 м/с11 %
  • 28мая
    Вторник
    +13°
    +26°
    Небольшая облачность, возможен дождь с грозой
    ВремяПогодаТемператураВлажностьДавлениеВетер, м/сВероятность осадков
    00:00Ясно и безоблачно+16°C90 %752 мм1.8 м/с2 %
    03:00Ясно и безоблачно+14°C91 %752 мм2.3 м/с2 %
    06:00Ясно и безоблачно+15°C87 %751 мм1.8 м/с2 %
    09:00Ясно и безоблачно+22°C63 %752 мм0.8 м/с2 %
    12:00Ясно и безоблачно+25°C45 %751 мм1.2 м/с9 %
    15:00Небольшая облачность, возможен дождь с грозой+22°C68 %750 мм2.2 м/с44 %
    18:00Небольшая облачность, ливень+24°C59 %750 мм0.8 м/с63 %
    21:00Облачно с прояснениями+20°C82 %749 мм0.6 м/с35 %
  • 29мая
    Среда
    +13°
    +28°
    Облачно с прояснениями
    ВремяПогодаТемператураВлажностьДавлениеВетер, м/сВероятность осадков
    00:00Ясно и безоблачно+17°C93 %749 мм1.9 м/с6 %
    03:00Ясно и безоблачно+14°C97 %749 мм2.1 м/с2 %
    06:00Облачно с прояснениями+15°C96 %748 мм1.9 м/с6 %
    09:00Облачно с прояснениями+21°C72 %748 мм0.7 м/с7 %
    12:00Практически безоблачно+26°C45 %747 мм1.4 м/с15 %
    15:00Облачно с прояснениями+27°C37 %746 мм1.4 м/с45 %
    18:00Ясно и безоблачно+26°C42 %746 мм2.2 м/с41 %
    21:00Ясно и безоблачно+21°C68 %746 мм0.4 м/с9 %
Мы используем cookies
Соглашаюсь